Time;durP1;ratioP1;P1;durP2;ratioP2;P2;SDS_P1;SDS_P2;PMS_P1;PMS_P2;Temp;Humidity;BMP_temperature;BMP_pressure;BME280_temperature;BME280_humidity;BME280_pressure;Samples;Min_cycle;Max_cycle;Signal;HPM_P1;HPM_P2
2022/07/22 00:00:21;;;;;;;5.80;5.30;;;;;;;23.10;56.58;101502.63;5023713;27;97408;-50
2022/07/22 00:02:46;;;;;;;4.90;4.60;;;;;;;23.11;56.70;101494.94;5021670;27;97518;-53
2022/07/22 00:05:12;;;;;;;5.10;4.60;;;;;;;23.12;56.53;101502.06;5021451;27;97027;-51
2022/07/22 00:07:38;;;;;;;4.93;4.53;;;;;;;23.16;56.67;101508.06;5022200;27;97061;-52
2022/07/22 00:10:06;;;;;;;5.03;4.63;;;;;;;23.13;56.58;101509.91;5023726;27;97332;-52
2022/07/22 00:12:32;;;;;;;4.53;4.13;;;;;;;23.11;56.78;101495.69;5022198;27;98817;-53
2022/07/22 00:14:57;;;;;;;4.87;4.47;;;;;;;23.14;56.63;101505.06;5020300;27;98326;-53
2022/07/22 00:17:22;;;;;;;5.07;4.60;;;;;;;23.15;56.57;101492.53;5024548;27;96953;-52
2022/07/22 00:19:48;;;;;;;5.00;4.60;;;;;;;23.16;56.67;101493.25;5020426;27;96770;-52
2022/07/22 00:22:13;;;;;;;5.70;5.00;;;;;;;23.16;56.75;101501.69;5023591;27;101814;-52
2022/07/22 00:24:38;;;;;;;4.67;4.37;;;;;;;23.18;56.83;101502.63;5021828;27;98667;-53
2022/07/22 00:27:04;;;;;;;5.10;4.70;;;;;;;23.19;56.71;101504.13;4998341;27;97472;-52
2022/07/22 00:29:29;;;;;;;8.30;5.50;;;;;;;23.18;56.65;101497.00;4990317;27;97167;-51
2022/07/22 00:31:55;;;;;;;5.77;5.03;;;;;;;23.15;56.96;101497.41;4980944;27;97061;-51
2022/07/22 00:34:20;;;;;;;5.50;5.03;;;;;;;23.18;56.64;101496.25;4987878;27;97509;-51
2022/07/22 00:36:45;;;;;;;5.17;4.77;;;;;;;23.16;56.68;101494.00;4985142;27;96870;-52
2022/07/22 00:39:10;;;;;;;5.53;5.03;;;;;;;23.13;56.72;101490.25;4966801;28;97826;-51
2022/07/22 00:41:36;;;;;;;5.33;4.83;;;;;;;23.14;56.76;101493.81;5002577;27;96925;-51
2022/07/22 00:44:06;;;;;;;5.07;4.67;;;;;;;23.11;57.10;101498.50;4983919;27;96649;-51
2022/07/22 00:46:33;;;;;;;4.77;4.40;;;;;;;23.10;56.99;101487.84;4995010;27;97285;-52
2022/07/22 00:48:59;;;;;;;4.70;4.37;;;;;;;23.09;57.01;101489.91;4997626;27;97354;-54
2022/07/22 00:51:26;;;;;;;4.80;4.40;;;;;;;23.09;57.08;101489.13;5012096;27;97244;-53
2022/07/22 00:53:53;;;;;;;5.37;4.97;;;;;;;23.10;57.31;101496.25;5021059;27;97278;-52
2022/07/22 00:56:18;;;;;;;5.43;5.00;;;;;;;23.10;57.18;101491.41;5020754;27;97114;-52
2022/07/22 00:58:46;;;;;;;5.67;5.20;;;;;;;23.09;57.40;101497.56;5023230;27;97964;-52
2022/07/22 01:01:12;;;;;;;5.67;5.20;;;;;;;23.06;57.55;101498.69;5020465;27;97307;-52
2022/07/22 01:03:38;;;;;;;6.43;5.83;;;;;;;23.05;57.67;101495.13;5022396;27;96767;-51
2022/07/22 01:06:04;;;;;;;5.80;5.30;;;;;;;23.06;57.71;101504.31;5023716;27;96797;-51
2022/07/22 01:08:30;;;;;;;6.07;5.57;;;;;;;23.03;57.82;101506.19;5019887;27;98603;-52
2022/07/22 01:11:06;;;;;;;6.60;6.10;;;;;;;23.02;58.58;101496.25;5020323;27;96889;-52
2022/07/22 01:13:31;;;;;;;6.23;5.70;;;;;;;23.03;58.02;101502.63;5019285;27;96892;-51
2022/07/22 01:15:57;;;;;;;6.17;5.57;;;;;;;23.01;58.24;101513.66;5015212;27;97038;-53
2022/07/22 01:18:22;;;;;;;6.10;5.63;;;;;;;23.00;58.10;101512.91;5021917;27;97159;-51
2022/07/22 01:20:48;;;;;;;6.47;5.97;;;;;;;22.96;58.25;101514.56;5020548;27;97192;-50
2022/07/22 01:23:13;;;;;;;5.63;5.13;;;;;;;22.96;58.42;101518.13;5023618;27;97286;-51
2022/07/22 01:25:38;;;;;;;5.73;5.27;;;;;;;22.92;58.62;101517.00;5020317;27;98197;-51
2022/07/22 01:28:04;;;;;;;7.73;6.93;;;;;;;22.87;58.78;101520.72;5022258;27;97515;-51
2022/07/22 01:30:29;;;;;;;7.20;6.60;;;;;;;22.83;58.95;101511.94;5022980;27;97936;-52
2022/07/22 01:32:55;;;;;;;7.77;7.07;;;;;;;22.80;58.94;101515.88;5019022;27;97172;-52
2022/07/22 01:35:20;;;;;;;7.30;6.70;;;;;;;22.78;59.07;101521.28;5023790;27;97240;-52
2022/07/22 01:37:45;;;;;;;8.13;7.43;;;;;;;22.73;59.18;101520.16;5019534;27;104860;-52
2022/07/22 01:40:11;;;;;;;7.63;6.93;;;;;;;22.69;59.26;101516.19;5021319;27;96959;-52
2022/07/22 01:42:36;;;;;;;7.23;6.70;;;;;;;22.65;59.30;101527.78;5020540;27;97202;-52
2022/07/22 01:45:02;;;;;;;11.30;6.20;;;;;;;22.63;59.31;101529.66;5022107;27;96896;-52
2022/07/22 01:47:27;;;;;;;5.70;5.20;;;;;;;22.56;59.44;101539.53;5020486;27;97454;-51
2022/07/22 01:49:53;;;;;;;5.30;4.60;;;;;;;22.50;59.33;101526.97;5020525;27;105262;-51
2022/07/22 01:52:18;;;;;;;5.27;4.77;;;;;;;22.44;59.46;101540.38;5020609;27;97131;-53
2022/07/22 01:54:43;;;;;;;4.40;4.07;;;;;;;22.40;59.30;101540.75;5022335;27;96670;-51
2022/07/22 01:57:09;;;;;;;4.00;3.70;;;;;;;22.33;59.50;101542.22;5021434;27;97429;-51
2022/07/22 01:59:34;;;;;;;4.30;3.90;;;;;;;22.24;59.45;101548.34;5021407;27;97211;-51
2022/07/22 02:01:59;;;;;;;3.87;3.03;;;;;;;22.20;59.46;101547.94;5020631;27;97478;-51
2022/07/22 02:04:25;;;;;;;3.23;3.00;;;;;;;22.13;59.43;101548.63;5020992;27;97300;-51
2022/07/22 02:06:50;;;;;;;3.30;2.97;;;;;;;22.07;59.58;101553.66;5020661;27;96949;-51
2022/07/22 02:09:16;;;;;;;3.93;2.70;;;;;;;22.01;59.74;101549.50;5020463;27;98409;-51
2022/07/22 02:11:42;;;;;;;2.90;2.60;;;;;;;21.97;59.70;101557.50;5022250;27;96662;-52
2022/07/22 02:14:07;;;;;;;2.03;1.93;;;;;;;21.96;59.75;101559.56;5021900;27;96983;-50
2022/07/22 02:16:32;;;;;;;2.47;2.27;;;;;;;21.92;59.80;101559.16;5024371;27;97213;-50
2022/07/22 02:18:58;;;;;;;2.20;2.10;;;;;;;21.89;59.82;101560.25;5023964;27;97120;-52
2022/07/22 02:21:23;;;;;;;2.30;2.10;;;;;;;21.86;59.84;101563.41;5026094;27;96604;-50
2022/07/22 02:23:49;;;;;;;1.50;1.40;;;;;;;21.82;59.74;101563.72;5025032;27;98066;-51
2022/07/22 02:26:15;;;;;;;2.13;1.70;;;;;;;21.76;59.85;101557.50;5014679;27;97212;-51
2022/07/22 02:28:40;;;;;;;1.50;1.37;;;;;;;21.75;59.95;101564.44;5024263;27;97362;-50
2022/07/22 02:31:06;;;;;;;1.97;1.87;;;;;;;21.70;60.01;101568.13;5020922;27;97077;-51
2022/07/22 02:33:31;;;;;;;2.27;2.07;;;;;;;21.69;59.99;101571.47;5025108;27;97158;-51
2022/07/22 02:35:57;;;;;;;1.80;1.70;;;;;;;21.67;59.92;101572.75;5026286;27;97265;-50
2022/07/22 02:38:22;;;;;;;2.00;1.90;;;;;;;21.67;59.90;101574.81;5023683;27;97168;-50
2022/07/22 02:40:48;;;;;;;2.53;2.43;;;;;;;21.61;59.94;101572.16;5024330;27;97223;-50
2022/07/22 02:43:14;;;;;;;2.17;2.07;;;;;;;21.59;59.96;101579.59;5025188;27;97303;-51
2022/07/22 02:45:39;;;;;;;2.60;2.40;;;;;;;21.54;59.96;101572.84;5024440;27;97336;-50
2022/07/22 02:48:05;;;;;;;2.60;2.50;;;;;;;21.50;60.08;101578.03;5022242;27;98153;-50
2022/07/22 02:50:32;;;;;;;2.57;2.37;;;;;;;21.50;60.12;101580.84;5024644;27;97116;-51
2022/07/22 02:52:58;;;;;;;2.80;2.60;;;;;;;21.52;60.02;101577.47;5019143;27;97379;-50
2022/07/22 02:55:23;;;;;;;3.30;3.10;;;;;;;21.58;59.97;101590.03;5024312;27;97094;-53
2022/07/22 02:57:48;;;;;;;3.27;3.07;;;;;;;21.54;59.99;101583.28;5022578;27;104422;-52
2022/07/22 03:00:14;;;;;;;5.40;4.90;;;;;;;21.51;59.86;101581.59;5023447;27;96967;-51
2022/07/22 03:02:40;;;;;;;7.53;6.10;;;;;;;21.51;59.89;101582.31;5024036;27;97330;-51
2022/07/22 03:05:06;;;;;;;7.03;6.43;;;;;;;21.51;59.84;101587.91;5020736;27;97199;-50
2022/07/22 03:07:31;;;;;;;7.27;6.67;;;;;;;21.48;59.85;101585.47;5024036;27;99627;-50
2022/07/22 03:09:58;;;;;;;8.27;7.47;;;;;;;21.46;59.96;101593.66;5021526;27;97107;-52
2022/07/22 03:12:23;;;;;;;8.53;7.80;;;;;;;21.41;59.98;101594.56;5025386;27;96930;-50
2022/07/22 03:14:48;;;;;;;8.63;7.93;;;;;;;21.36;59.96;101584.97;5023296;27;97307;-50
2022/07/22 03:17:14;;;;;;;12.13;9.00;;;;;;;21.36;59.98;101601.06;5019910;27;97110;-50
2022/07/22 03:19:39;;;;;;;9.97;9.07;;;;;;;21.34;60.09;101603.66;5024403;27;96999;-53
2022/07/22 03:22:05;;;;;;;10.37;9.50;;;;;;;21.34;59.92;101606.44;5024691;27;97117;-52
2022/07/22 03:24:30;;;;;;;10.97;9.90;;;;;;;21.36;59.98;101612.97;5022955;27;97204;-50
2022/07/22 03:26:55;;;;;;;9.43;8.53;;;;;;;21.35;59.91;101608.69;5023658;27;115005;-50
2022/07/22 03:29:21;;;;;;;10.47;9.37;;;;;;;21.34;59.87;101604.38;5023738;27;96939;-50
2022/07/22 03:31:46;;;;;;;9.33;8.40;;;;;;;21.30;59.83;101612.38;5017911;27;110174;-49
2022/07/22 03:34:11;;;;;;;9.70;8.80;;;;;;;21.26;59.86;101611.97;5010414;27;97269;-51
2022/07/22 03:36:37;;;;;;;10.30;9.30;;;;;;;21.25;59.85;101610.44;5010691;27;97067;-51
2022/07/22 03:39:02;;;;;;;10.27;9.43;;;;;;;21.26;59.94;101608.41;5021675;27;97073;-50
2022/07/22 03:41:27;;;;;;;10.27;9.27;;;;;;;21.24;59.87;101611.75;5014595;27;96884;-50
2022/07/22 03:43:53;;;;;;;8.90;8.10;;;;;;;21.23;59.87;101613.03;5021608;27;97352;-50
2022/07/22 03:46:18;;;;;;;7.57;6.87;;;;;;;21.22;59.83;101605.94;5020881;27;97100;-51
2022/07/22 03:48:44;;;;;;;9.00;8.20;;;;;;;21.22;59.78;101605.94;5022579;27;96857;-51
2022/07/22 03:51:09;;;;;;;8.83;8.03;;;;;;;21.21;59.82;101601.63;5020546;27;97500;-51
2022/07/22 03:53:34;;;;;;;8.10;7.30;;;;;;;21.21;59.87;101612.09;5019487;27;98584;-50
2022/07/22 03:56:01;;;;;;;9.57;7.50;;;;;;;21.22;59.78;101608.00;5017588;27;97695;-50
2022/07/22 03:58:27;;;;;;;9.53;8.00;;;;;;;21.20;59.85;101611.34;5017882;27;96823;-51
2022/07/22 04:00:53;;;;;;;8.33;7.53;;;;;;;21.19;59.84;101620.25;5022736;27;97194;-50
2022/07/22 04:03:18;;;;;;;10.07;7.27;;;;;;;21.19;59.94;101617.47;5022807;27;97515;-50
2022/07/22 04:05:45;;;;;;;8.70;8.00;;;;;;;21.17;59.82;101625.66;5024119;27;97276;-51
2022/07/22 04:08:11;;;;;;;8.67;7.97;;;;;;;21.15;59.91;101625.44;5021247;27;99182;-51
2022/07/22 04:10:36;;;;;;;8.37;7.60;;;;;;;21.14;59.78;101624.72;5017303;27;97261;-51
2022/07/22 04:13:02;;;;;;;9.63;8.47;;;;;;;21.14;59.83;101623.97;5020550;27;97258;-50
2022/07/22 04:15:27;;;;;;;9.40;8.50;;;;;;;21.12;59.96;101632.88;5020611;27;97196;-51
2022/07/22 04:17:52;;;;;;;9.57;8.67;;;;;;;21.11;59.95;101634.19;5016438;27;97235;-50
2022/07/22 04:20:18;;;;;;;8.57;7.40;;;;;;;21.12;59.95;101630.06;5020007;27;97136;-51
2022/07/22 04:22:43;;;;;;;9.30;6.70;;;;;;;21.09;59.73;101636.78;5020899;27;97859;-52
2022/07/22 04:25:09;;;;;;;7.63;6.80;;;;;;;21.07;59.91;101652.59;5022093;27;96981;-51
2022/07/22 04:27:35;;;;;;;6.30;5.77;;;;;;;21.04;59.74;101648.84;5024448;27;97014;-50
2022/07/22 04:30:00;;;;;;;5.57;5.07;;;;;;;21.04;59.82;101653.66;5023001;27;96846;-51
2022/07/22 04:32:26;;;;;;;5.13;4.73;;;;;;;21.01;59.86;101647.09;5022555;27;97830;-50
2022/07/22 04:34:51;;;;;;;4.37;4.07;;;;;;;20.99;59.90;101649.66;5021826;27;97643;-51
2022/07/22 04:37:17;;;;;;;4.40;4.00;;;;;;;21.00;59.90;101647.63;5022499;27;111290;-51
2022/07/22 04:39:42;;;;;;;4.97;4.47;;;;;;;20.98;59.66;101653.03;5024458;27;97435;-50
2022/07/22 04:42:07;;;;;;;6.13;4.20;;;;;;;20.96;59.76;101652.81;5023604;27;96822;-50
2022/07/22 04:44:33;;;;;;;3.73;3.43;;;;;;;20.93;59.88;101652.59;5023266;27;96687;-51
2022/07/22 04:46:58;;;;;;;4.30;3.90;;;;;;;20.93;59.89;101658.19;5014802;27;97080;-50
2022/07/22 04:49:25;;;;;;;4.50;3.80;;;;;;;20.94;59.90;101650.56;5021083;27;97375;-50
2022/07/22 04:51:51;;;;;;;7.00;3.50;;;;;;;20.91;60.00;101649.59;5020324;27;97305;-50
2022/07/22 04:54:16;;;;;;;3.40;3.10;;;;;;;20.90;60.01;101647.34;5021265;27;96854;-51
2022/07/22 04:56:42;;;;;;;3.43;3.17;;;;;;;20.90;60.01;101644.53;5021358;27;96891;-50
2022/07/22 04:59:07;;;;;;;3.77;3.53;;;;;;;20.87;59.96;101654.75;5022323;27;97284;-50
2022/07/22 05:01:32;;;;;;;3.27;2.97;;;;;;;20.87;59.94;101654.75;5021964;27;97029;-51
2022/07/22 05:03:58;;;;;;;4.73;4.10;;;;;;;20.85;59.83;101654.56;5022343;27;96997;-51
2022/07/22 05:06:24;;;;;;;3.50;3.20;;;;;;;20.85;59.96;101653.78;5019217;27;97167;-50
2022/07/22 05:08:49;;;;;;;3.57;3.27;;;;;;;20.85;60.04;101653.78;5023932;27;97391;-50
2022/07/22 05:11:14;;;;;;;3.60;3.30;;;;;;;20.87;59.88;101651.22;5022511;27;102729;-50
2022/07/22 05:13:40;;;;;;;3.50;3.30;;;;;;;20.88;59.96;101664.66;5021912;27;97150;-50
2022/07/22 05:16:06;;;;;;;3.60;3.30;;;;;;;20.87;59.87;101665.19;5018354;27;96818;-50
2022/07/22 05:18:32;;;;;;;3.30;2.70;;;;;;;20.89;60.01;101657.00;5022725;27;97065;-51
2022/07/22 05:20:57;;;;;;;2.93;2.63;;;;;;;20.89;59.96;101663.38;5021763;27;97414;-51
2022/07/22 05:23:22;;;;;;;4.80;2.73;;;;;;;20.90;59.98;101667.66;5021710;27;96767;-51
2022/07/22 05:25:48;;;;;;;3.10;2.37;;;;;;;20.93;59.75;101665.81;5022007;27;96189;-51
2022/07/22 05:28:13;;;;;;;2.83;2.63;;;;;;;20.92;59.82;101664.34;5021108;27;96654;-53
2022/07/22 05:30:38;;;;;;;3.77;3.37;;;;;;;20.93;59.96;101666.59;5022680;27;97660;-53
2022/07/22 05:33:04;;;;;;;2.73;2.53;;;;;;;20.91;59.99;101660.78;5023449;27;97186;-50
2022/07/22 05:35:29;;;;;;;2.60;2.40;;;;;;;20.93;59.82;101669.38;5023235;27;97542;-50
2022/07/22 05:37:56;;;;;;;2.83;2.60;;;;;;;20.89;59.83;101668.97;5023373;27;97163;-50
2022/07/22 05:40:21;;;;;;;2.67;2.47;;;;;;;20.88;59.79;101673.03;5023633;27;96748;-51
2022/07/22 05:42:46;;;;;;;3.70;2.50;;;;;;;20.88;59.86;101675.84;5022340;27;97723;-53
2022/07/22 05:45:12;;;;;;;5.97;3.50;;;;;;;20.87;59.72;101674.34;5017524;27;96791;-51
2022/07/22 05:47:37;;;;;;;2.83;2.63;;;;;;;20.86;59.76;101683.25;5021789;27;97189;-50
2022/07/22 05:50:03;;;;;;;4.70;3.33;;;;;;;20.87;59.79;101681.97;5024501;27;97035;-50
2022/07/22 05:52:28;;;;;;;2.83;2.60;;;;;;;20.91;59.71;101688.00;5026264;27;97005;-52
2022/07/22 05:54:54;;;;;;;3.00;2.80;;;;;;;20.93;59.83;101685.41;5023310;27;96675;-51
2022/07/22 05:57:19;;;;;;;6.40;3.23;;;;;;;20.92;59.64;101687.44;5023590;27;97535;-51
2022/07/22 05:59:44;;;;;;;3.27;2.90;;;;;;;20.91;59.73;101683.16;5024360;27;107060;-50
2022/07/22 06:02:10;;;;;;;3.23;2.93;;;;;;;20.89;59.68;101682.19;5026698;27;96932;-51
2022/07/22 06:04:35;;;;;;;4.23;2.97;;;;;;;20.92;59.63;101687.44;5027464;27;96876;-52
2022/07/22 06:07:01;;;;;;;3.17;2.97;;;;;;;20.95;59.77;101688.41;5022874;27;97160;-50
2022/07/22 06:09:26;;;;;;;2.90;2.70;;;;;;;20.96;59.63;101686.38;5026007;27;97671;-51
2022/07/22 06:11:51;;;;;;;3.83;2.93;;;;;;;21.00;59.71;101692.41;5024379;27;98116;-51
2022/07/22 06:14:17;;;;;;;2.77;2.63;;;;;;;21.02;59.63;101701.00;5025092;27;96945;-53
2022/07/22 06:16:42;;;;;;;3.07;2.73;;;;;;;21.03;59.53;101696.94;5024947;27;97045;-51
2022/07/22 06:19:08;;;;;;;3.63;3.27;;;;;;;21.02;59.62;101703.81;5022694;27;97642;-51
2022/07/22 06:21:33;;;;;;;3.30;3.10;;;;;;;21.01;59.51;101696.72;5023029;27;97268;-51
2022/07/22 06:23:59;;;;;;;3.57;2.80;;;;;;;21.00;59.40;101704.34;5026045;27;96904;-52
2022/07/22 06:26:24;;;;;;;4.13;3.07;;;;;;;21.00;59.28;101706.38;5023232;27;97270;-51
2022/07/22 06:28:50;;;;;;;5.80;3.30;;;;;;;20.98;59.35;101692.94;5022924;27;100325;-51
2022/07/22 06:31:16;;;;;;;4.97;3.37;;;;;;;21.00;59.33;101698.75;5025861;27;97091;-52
2022/07/22 06:33:42;;;;;;;3.40;3.10;;;;;;;21.02;59.40;101703.81;5026018;27;97022;-52
2022/07/22 06:36:07;;;;;;;3.70;2.93;;;;;;;21.05;59.34;101697.91;5022517;27;97213;-53
2022/07/22 06:38:33;;;;;;;4.80;3.37;;;;;;;21.06;59.52;101702.22;5024509;27;97231;-51
2022/07/22 06:40:58;;;;;;;5.70;3.10;;;;;;;21.10;59.31;101702.63;5023151;27;98412;-51
2022/07/22 06:43:23;;;;;;;4.90;3.10;;;;;;;21.14;59.40;101714.28;5024281;27;96789;-53
2022/07/22 06:45:49;;;;;;;3.57;3.27;;;;;;;21.14;59.27;101707.91;5021527;27;97306;-52
2022/07/22 06:48:14;;;;;;;3.63;3.33;;;;;;;21.17;59.24;101698.41;5023900;27;96678;-52
2022/07/22 06:50:40;;;;;;;4.67;4.27;;;;;;;21.20;59.10;101705.75;5024418;27;97317;-52
2022/07/22 06:53:05;;;;;;;3.50;3.20;;;;;;;21.24;59.03;101709.72;5021358;27;97008;-51
2022/07/22 06:55:30;;;;;;;6.40;4.13;;;;;;;21.28;59.08;101707.34;5022396;27;96931;-52
2022/07/22 06:57:56;;;;;;;5.07;3.60;;;;;;;21.34;59.11;101704.44;5025640;27;97272;-52
2022/07/22 07:00:21;;;;;;;4.77;4.30;;;;;;;21.39;59.01;101706.34;5024399;27;97097;-51
2022/07/22 07:02:47;;;;;;;4.37;3.77;;;;;;;21.45;59.05;101710.53;5021768;27;96932;-54
2022/07/22 07:05:12;;;;;;;4.03;3.40;;;;;;;21.49;58.90;101710.94;5024554;27;96990;-52
2022/07/22 07:07:38;;;;;;;3.43;3.13;;;;;;;21.51;58.74;101713.94;5022497;27;97602;-53
2022/07/22 07:10:04;;;;;;;4.97;3.30;;;;;;;21.56;58.70;101704.66;5022666;27;97105;-52
2022/07/22 07:12:29;;;;;;;3.10;2.80;;;;;;;21.61;58.66;101711.44;5023767;27;97315;-53
2022/07/22 07:14:54;;;;;;;3.87;3.40;;;;;;;21.62;58.53;101715.75;5018917;27;97290;-52
2022/07/22 07:17:20;;;;;;;4.93;3.50;;;;;;;21.58;58.45;101706.91;5021393;27;97302;-53
2022/07/22 07:19:45;;;;;;;2.90;2.70;;;;;;;21.54;58.53;101707.25;5024238;27;97256;-52
2022/07/22 07:22:10;;;;;;;3.53;3.10;;;;;;;21.54;58.39;101700.91;5020797;27;96950;-52
2022/07/22 07:24:36;;;;;;;3.53;3.07;;;;;;;21.55;58.51;101705.97;5023041;27;97046;-53
2022/07/22 07:27:01;;;;;;;5.90;2.73;;;;;;;21.56;58.47;101721.47;5023782;27;97965;-53
2022/07/22 07:29:27;;;;;;;3.30;2.60;;;;;;;21.54;58.48;101712.09;5023717;27;97038;-53
2022/07/22 07:31:52;;;;;;;8.83;3.37;;;;;;;21.52;58.32;101725.91;5025234;27;97117;-53
2022/07/22 07:34:17;;;;;;;3.77;3.00;;;;;;;21.52;58.26;101718.25;5025138;27;97034;-53
2022/07/22 07:36:43;;;;;;;5.23;2.80;;;;;;;21.53;58.26;101716.22;5023649;27;96959;-53
2022/07/22 07:39:08;;;;;;;3.87;2.80;;;;;;;21.51;58.35;101718.81;5016552;27;98333;-52
2022/07/22 07:41:34;;;;;;;3.20;2.17;;;;;;;21.49;58.28;101727.00;5024991;27;97066;-51
2022/07/22 07:43:59;;;;;;;4.30;2.30;;;;;;;21.48;58.11;101720.66;5024124;27;96966;-51
2022/07/22 07:46:24;;;;;;;2.93;2.73;;;;;;;21.42;57.97;101730.47;5020832;27;97580;-50
2022/07/22 07:48:50;;;;;;;3.07;2.60;;;;;;;21.41;57.98;101731.75;5022288;27;100149;-52
2022/07/22 07:51:15;;;;;;;2.60;2.40;;;;;;;21.39;58.05;101726.69;5024998;27;97074;-52
2022/07/22 07:53:40;;;;;;;7.73;2.70;;;;;;;21.41;58.08;101723.34;5024275;27;97240;-51
2022/07/22 07:56:06;;;;;;;2.90;2.37;;;;;;;21.42;58.07;101734.03;5024391;27;96728;-51
2022/07/22 07:58:31;;;;;;;3.43;2.30;;;;;;;21.43;57.94;101723.56;5024834;27;97188;-52
2022/07/22 08:03:24;;;;;;;5.40;2.70;;;;;;;21.57;57.94;101730.63;4954323;28;97591;-49
2022/07/22 08:05:50;;;;;;;3.87;2.90;;;;;;;21.63;57.84;101717.25;4949906;28;97441;-49
2022/07/22 08:08:15;;;;;;;5.67;3.23;;;;;;;21.67;57.67;101723.25;4956628;28;97345;-49
2022/07/22 08:10:42;;;;;;;5.03;3.83;;;;;;;21.69;57.63;101729.06;4948332;28;96896;-48
2022/07/22 08:13:07;;;;;;;3.47;3.17;;;;;;;21.71;57.68;101737.69;4954285;28;96920;-49
2022/07/22 08:15:32;;;;;;;5.03;3.70;;;;;;;21.78;57.62;101733.47;4955232;28;100910;-49
2022/07/22 08:17:59;;;;;;;4.80;3.47;;;;;;;21.83;57.55;101730.56;4934449;28;100383;-49
2022/07/22 08:20:25;;;;;;;6.93;3.50;;;;;;;21.92;57.28;101732.91;4951972;28;97259;-49
2022/07/22 08:22:51;;;;;;;3.60;3.00;;;;;;;21.99;57.27;101734.28;4954382;28;96955;-47
2022/07/22 08:25:16;;;;;;;4.17;2.93;;;;;;;22.08;57.19;101726.13;4953942;28;97857;-48
2022/07/22 08:27:42;;;;;;;2.90;1.90;;;;;;;22.18;56.97;101732.00;4956053;28;96952;-48
2022/07/22 08:30:07;;;;;;;3.30;1.93;;;;;;;22.22;56.89;101729.59;4953103;28;97433;-48
2022/07/22 08:32:34;;;;;;;5.53;2.23;;;;;;;22.26;56.81;101724.41;4957197;28;97250;-48
2022/07/22 08:34:59;;;;;;;3.23;2.07;;;;;;;22.29;56.58;101729.69;4955024;28;96828;-50
2022/07/22 08:37:25;;;;;;;2.90;1.73;;;;;;;22.29;56.50;101729.69;4955125;28;96967;-47
2022/07/22 08:39:50;;;;;;;2.47;1.67;;;;;;;22.27;56.47;101731.53;4957330;28;97152;-49
2022/07/22 08:42:16;;;;;;;1.97;1.17;;;;;;;22.26;56.51;101735.63;4953065;28;97480;-48
2022/07/22 08:44:41;;;;;;;1.60;1.50;;;;;;;22.23;56.50;101731.13;4954207;28;98029;-49
2022/07/22 08:47:07;;;;;;;2.50;1.13;;;;;;;22.20;56.44;101735.78;4950400;28;96756;-49
2022/07/22 08:49:32;;;;;;;7.03;1.90;;;;;;;22.21;56.46;101733.72;4955977;28;97081;-51
2022/07/22 08:51:57;;;;;;;7.43;1.80;;;;;;;22.25;56.14;101734.88;4952349;28;96930;-49
2022/07/22 08:54:23;;;;;;;2.80;1.80;;;;;;;22.28;56.01;101735.81;4948587;28;97169;-48
2022/07/22 08:56:50;;;;;;;6.43;1.50;;;;;;;22.26;55.92;101736.38;4955752;28;97125;-49
2022/07/22 08:59:15;;;;;;;3.40;1.50;;;;;;;22.25;56.04;101746.09;4958481;28;97333;-49
2022/07/22 09:02:08;;;;;;;1.63;1.20;;;;;;;22.16;55.59;101751.44;4957970;28;96874;-48
2022/07/22 09:04:59;;;;;;;4.57;1.63;;;;;;;22.02;55.88;101753.53;4957037;28;100726;-48
2022/07/22 09:07:26;;;;;;;2.83;1.27;;;;;;;21.95;56.18;101762.63;4957131;28;101557;-49
2022/07/22 09:09:51;;;;;;;1.30;1.10;;;;;;;21.90;56.09;101749.50;4955651;28;96837;-49
2022/07/22 09:12:16;;;;;;;3.20;1.60;;;;;;;21.89;56.10;101747.22;4954095;28;97050;-48
2022/07/22 09:14:49;;;;;;;1.17;1.07;;;;;;;21.86;55.94;101749.09;4953765;28;99332;-49
2022/07/22 09:17:36;;;;;;;2.13;1.20;;;;;;;21.96;56.01;101749.38;4949083;28;97339;-49
2022/07/22 09:20:16;;;;;;;1.73;1.30;;;;;;;22.07;55.13;101747.06;4960305;28;97110;-49
2022/07/22 09:22:44;;;;;;;8.63;1.47;;;;;;;22.16;55.62;101752.19;4951998;28;97859;-48
2022/07/22 09:25:25;;;;;;;4.67;1.73;;;;;;;22.27;55.22;101757.53;4967161;28;97004;-49
2022/07/22 09:27:52;;;;;;;1.53;1.43;;;;;;;22.39;55.04;101743.94;4952682;28;97229;-49
2022/07/22 09:30:19;;;;;;;1.13;1.00;;;;;;;;;;4960606;28;96787;-48
2022/07/22 09:32:46;;;;;;;3.90;1.20;;;;;;;22.61;54.73;101748.25;4957613;28;97496;-49
2022/07/22 09:35:11;;;;;;;3.90;1.70;;;;;;;22.66;54.31;101756.53;4957705;28;97526;-49
2022/07/22 09:37:54;;;;;;;1.87;1.50;;;;;;;22.69;53.74;101755.44;4959411;28;100423;-48
2022/07/22 09:40:23;;;;;;;1.80;1.70;;;;;;;22.70;54.00;101756.19;4956033;28;97794;-49
2022/07/22 09:42:54;;;;;;;4.40;1.33;;;;;;;22.76;53.99;101765.94;4960275;28;97620;-48
2022/07/22 09:45:21;;;;;;;2.23;1.90;;;;;;;22.81;54.07;101758.69;4962004;28;102130;-48
2022/07/22 09:47:48;;;;;;;2.13;1.77;;;;;;;22.82;54.06;101754.59;4959104;28;101649;-48
2022/07/22 09:50:22;;;;;;;3.20;1.60;;;;;;;22.82;53.73;101760.97;4963696;28;96614;-48
2022/07/22 09:52:49;;;;;;;3.80;1.73;;;;;;;22.85;54.06;101768.25;4955358;28;97079;-48
2022/07/22 09:55:17;;;;;;;4.10;1.50;;;;;;;22.80;54.10;101768.41;4964247;28;97970;-50
2022/07/22 09:57:43;;;;;;;2.13;2.00;;;;;;;22.81;53.91;101762.25;4957423;28;97372;-48
2022/07/22 10:00:09;;;;;;;4.00;1.70;;;;;;;22.86;53.80;101766.97;4959241;28;97146;-49
2022/07/22 10:02:41;;;;;;;2.07;1.87;;;;;;;22.79;53.63;101764.09;4959561;28;96902;-49
2022/07/22 10:05:08;;;;;;;2.80;2.43;;;;;;;22.86;53.59;101760.59;4957668;28;101833;-48
2022/07/22 10:07:36;;;;;;;2.07;1.90;;;;;;;22.97;53.35;101757.47;4926446;28;96661;-49
2022/07/22 10:10:02;;;;;;;1.80;1.47;;;;;;;23.05;53.14;101752.66;4934474;28;97361;-49
2022/07/22 10:12:30;;;;;;;2.87;2.00;;;;;;;23.13;53.08;101757.00;4928205;28;96714;-49
2022/07/22 10:14:56;;;;;;;4.27;2.20;;;;;;;23.18;52.78;101755.34;4935550;28;97332;-49
2022/07/22 10:17:21;;;;;;;3.40;2.03;;;;;;;23.20;52.39;101752.72;4924442;28;97353;-49
2022/07/22 10:19:47;;;;;;;2.53;2.17;;;;;;;23.23;52.30;101762.09;4932151;28;96960;-49
2022/07/22 10:22:43;;;;;;;2.10;1.90;;;;;;;23.25;51.42;101760.25;4929540;28;97287;-49
2022/07/22 10:25:11;;;;;;;3.57;2.70;;;;;;;23.22;52.00;101757.81;4929766;28;102001;-49
2022/07/22 10:27:49;;;;;;;4.57;2.13;;;;;;;23.20;50.66;101763.97;4922483;28;97204;-48
2022/07/22 10:30:26;;;;;;;2.90;2.10;;;;;;;23.17;51.56;101765.09;4934884;28;97304;-49
2022/07/22 10:33:04;;;;;;;2.40;2.20;;;;;;;23.19;51.15;101765.28;4952156;28;96677;-49
2022/07/22 10:35:30;;;;;;;3.73;2.00;;;;;;;23.21;51.74;101759.84;4953428;28;101473;-48
2022/07/22 10:37:57;;;;;;;3.50;2.00;;;;;;;23.23;51.43;101757.25;4956004;28;97202;-48
2022/07/22 10:40:29;;;;;;;2.10;1.90;;;;;;;23.22;51.38;101766.22;4953925;28;96878;-49
2022/07/22 10:42:58;;;;;;;3.57;2.23;;;;;;;23.24;50.92;101753.13;4956325;28;97392;-49
2022/07/22 10:45:46;;;;;;;2.60;2.13;;;;;;;23.18;50.37;101758.16;4956915;28;97460;-48
2022/07/22 10:48:29;;;;;;;3.00;2.23;;;;;;;23.22;50.80;101764.16;4955568;28;102746;-48
2022/07/22 10:51:16;;;;;;;5.43;2.03;;;;;;;23.27;50.77;101752.00;4961202;28;97201;-49
2022/07/22 10:53:47;;;;;;;3.03;2.17;;;;;;;23.39;51.18;101753.22;4953940;28;97172;-48
2022/07/22 10:56:14;;;;;;;3.73;1.80;;;;;;;23.43;50.79;101745.19;4951470;28;97367;-48
2022/07/22 10:58:42;;;;;;;3.30;2.20;;;;;;;23.47;50.55;101744.81;4952458;28;97420;-48
2022/07/22 11:01:10;;;;;;;3.17;2.10;;;;;;;23.54;50.61;101750.47;4953783;28;96842;-48
2022/07/22 11:03:38;;;;;;;6.93;1.90;;;;;;;23.59;50.21;101749.53;4953747;28;97606;-49
2022/07/22 11:06:19;;;;;;;10.40;2.10;;;;;;;23.65;49.67;101746.56;4957165;28;96800;-49
2022/07/22 11:08:47;;;;;;;1.97;1.63;;;;;;;23.72;50.09;101745.84;4958406;28;97126;-48
2022/07/22 11:11:13;;;;;;;1.70;1.60;;;;;;;23.72;49.90;101743.75;4954656;28;96883;-49
2022/07/22 11:13:41;;;;;;;3.87;1.83;;;;;;;23.68;49.96;101751.81;4964464;28;97111;-49
2022/07/22 11:16:26;;;;;;;2.30;1.97;;;;;;;23.67;49.23;101739.06;4956561;28;97664;-49
2022/07/22 11:19:00;;;;;;;4.50;1.90;;;;;;;23.61;49.93;101749.72;4952452;28;101407;-50
2022/07/22 11:21:27;;;;;;;3.20;2.30;;;;;;;23.63;50.29;101749.91;4949340;28;96820;-48
2022/07/22 11:23:55;;;;;;;3.97;2.50;;;;;;;23.65;49.94;101750.13;4957768;28;97278;-48